Last 24 Hours

Pinyon

10 Minute Data | America/Los_Angeles
as of 5/7/26 7:33 PM PDT
Date & Time Temp (°F) Dew Pt (°F) RH (%) Wind Spd (mph) Wind Dir (°) Wind Gust (mph) Wind Gst Dir (°) Daily Max Temp (°F) Daily Min Temp (°F)
5/7/26 - 1930 70.7 38.2 31 9.2 NNW | 337 14.6 N | 354 80.6 63.4
5/7/26 - 1920 71.5 40.0 32 9.6 NNW | 341 14.8 NNE | 26 80.6 63.4
5/7/26 - 1910 72.2 41.5 33 10.1 NNW | 346 16.3 NW | 326 80.6 63.4
5/7/26 - 1900 72.7 41.9 33 10.3 N | 5 16.4 N | 11 80.6 63.4
5/7/26 - 1850 73.5 42.2 32 10.3 N | 6 18.5 NNE | 14 80.6 63.4
5/7/26 - 1840 74.3 42.6 32 9.8 N | 7 16.2 N | 354 80.6 63.4
5/7/26 - 1830 74.8 42.9 32 10.5 N | 4 17.0 NNE | 32 80.6 63.4
5/7/26 - 1820 75.1 42.8 31 10.7 N | 11 16.4 NNE | 30 80.6 63.4
5/7/26 - 1810 75.5 43.5 32 12.6 N | 11 20.6 NNE | 15 80.6 63.4
5/7/26 - 1800 75.8 43.8 32 13.7 NNE | 15 20.8 N | 6 80.6 63.4
5/7/26 - 1750 76.8 42.2 29 13.4 NNE | 15 21.6 N | 2 80.6 63.4
5/7/26 - 1740 77.0 42.6 29 14.4 NNE | 16 23.9 NNE | 20 80.6 63.4
5/7/26 - 1730 77.3 40.1 26 12.9 NNE | 12 18.7 NNE | 20 80.6 63.4
5/7/26 - 1720 77.4 40.0 26 13.6 NNE | 13 20.2 N | 354 80.6 63.4
5/7/26 - 1710 77.8 41.2 27 15.5 N | 9 22.8 N | 0 80.6 63.4
5/7/26 - 1700 78.0 39.6 25 14.6 NNE | 17 24.3 N | 4 80.6 63.4
5/7/26 - 1650 79.0 38.3 23 13.5 NNE | 12 22.6 N | 11 80.6 63.4
5/7/26 - 1640 79.1 37.7 23 12.5 NNE | 15 21.2 NNE | 23 80.6 63.4
5/7/26 - 1630 79.3 33.3 19 8.9 ENE | 62 18.3 NE | 43 80.6 63.4
5/7/26 - 1620 79.9 27.1 14 1.4 W | 263 4.2 SSW | 195 80.6 63.4
5/7/26 - 1610 79.3 27.1 15 3.9 SW | 220 9.2 SSW | 201 80.5 63.4
5/7/26 - 1600 79.2 27.0 15 6.7 SSE | 168 14.8 SSE | 155 80.5 63.4
5/7/26 - 1550 78.9 26.9 15 6.4 SSE | 159 16.1 SE | 140 80.5 63.4
5/7/26 - 1540 78.7 27.0 15 8.3 SE | 143 16.4 SE | 132 80.5 63.4
5/7/26 - 1530 79.1 27.1 15 8.8 SE | 137 19.8 SE | 137 80.5 63.4
5/7/26 - 1520 78.9 27.2 15 10.1 SE | 143 17.5 SE | 140 80.5 63.4
5/7/26 - 1510 79.4 27.3 15 7.7 SE | 130 18.8 SSE | 166 80.5 63.4
5/7/26 - 1500 78.1 26.9 15 5.5 SE | 128 13.3 SSE | 151 79.6 63.4
5/7/26 - 1450 78.8 27.1 15 7.8 SSE | 148 15.2 SSE | 158 79.6 63.4
5/7/26 - 1440 78.8 27.2 15 7.1 SE | 145 15.7 SSE | 159 79.4 63.4
5/7/26 - 1430 77.5 26.4 15 5.1 SE | 141 11.8 S | 178 78.8 63.4
5/7/26 - 1420 78.3 26.7 15 9.2 S | 180 16.5 SSE | 148 78.8 63.4
5/7/26 - 1410 77.6 25.9 15 8.8 SSE | 166 16.5 SSE | 154 78.3 63.4
5/7/26 - 1400 77.8 25.4 14 9.7 SE | 139 16.3 SSE | 152 78.2 63.4
5/7/26 - 1350 77.3 24.8 14 7.4 S | 170 18.3 S | 171 78.2 63.4
5/7/26 - 1340 77.1 24.6 14 4.9 SSW | 204 10.5 SSE | 168 78.2 63.4
5/7/26 - 1330 77.1 23.8 14 6.0 SE | 146 13.7 S | 169 78.0 63.4
5/7/26 - 1320 77.0 23.5 14 8.6 SE | 130 14.3 SSE | 162 78.0 63.4
5/7/26 - 1310 76.8 23.4 14 5.4 E | 96 18.0 E | 85 78.0 63.4
5/7/26 - 1300 77.1 25.0 14 4.0 ESE | 121 8.3 SSE | 147 78.0 63.4
5/7/26 - 1250 76.5 24.1 14 6.3 ESE | 105 12.8 SE | 137 77.5 63.4
5/7/26 - 1240 76.9 25.6 15 6.4 SE | 145 11.8 SSE | 147 77.3 63.4
5/7/26 - 1230 76.7 24.4 14 5.9 SSW | 196 14.0 SSE | 160 77.3 63.4
5/7/26 - 1220 76.8 24.4 14 5.6 S | 176 11.7 S | 169 77.3 63.4
5/7/26 - 1210 76.3 24.8 15 5.8 S | 177 12.5 SSE | 164 77.2 63.4
5/7/26 - 1200 76.5 24.0 14 6.3 S | 182 14.2 S | 184 77.0 63.4
5/7/26 - 1150 76.2 25.9 15 5.7 S | 188 10.3 S | 186 76.9 63.4
5/7/26 - 1140 75.4 28.2 17 6.2 SE | 137 11.2 ESE | 117 76.4 63.4
5/7/26 - 1130 75.3 29.1 18 6.7 SE | 146 12.1 SE | 140 75.8 63.4
5/7/26 - 1120 74.8 29.4 19 7.1 SE | 136 15.0 S | 170 75.3 63.4
5/7/26 - 1110 74.6 29.7 19 6.2 SSE | 166 12.9 SSE | 155 75.3 63.4
5/7/26 - 1100 74.2 30.3 20 8.6 SE | 144 13.4 SE | 135 75.3 63.4
5/7/26 - 1050 74.6 30.4 20 6.1 SE | 138 11.6 SE | 124 75.3 63.4
5/7/26 - 1040 73.5 29.9 20 6.8 SE | 142 13.9 SE | 131 74.3 63.4
5/7/26 - 1030 73.4 30.1 20 8.0 SE | 128 13.8 SE | 131 74.0 63.4
5/7/26 - 1020 73.2 30.2 20 8.2 SSE | 153 14.4 SSE | 148 74.0 63.4
5/7/26 - 1010 72.8 30.1 21 8.4 SE | 136 14.4 SE | 145 73.9 63.4
5/7/26 - 1000 73.3 30.2 20 7.5 SE | 137 14.5 SE | 134 73.9 63.4
5/7/26 - 0950 73.3 30.2 20 5.0 S | 174 10.9 SSW | 199 73.9 63.4
5/7/26 - 0940 73.3 30.2 20 5.8 S | 175 11.8 SSE | 161 73.9 63.4
5/7/26 - 0930 72.8 30.0 20 5.3 S | 177 10.8 S | 188 73.7 63.4
5/7/26 - 0920 72.9 30.4 21 3.9 SE | 138 7.5 SSE | 158 73.7 63.4
5/7/26 - 0910 72.2 29.8 21 4.7 SSE | 158 12.2 SE | 136 72.8 63.4
5/7/26 - 0900 72.3 29.4 20 3.5 ESE | 102 11.6 SE | 127 72.8 63.4
5/7/26 - 0850 72.0 30.5 21 4.8 ESE | 107 10.4 ESE | 111 72.8 63.4
5/7/26 - 0840 72.0 31.2 22 2.2 NE | 48 5.5 NE | 52 72.6 63.4
5/7/26 - 0830 71.3 30.9 22 2.9 NNE | 17 5.7 N | 3 71.6 63.4
5/7/26 - 0820 70.7 31.0 23 3.0 N | 354 5.8 N | 6 71.4 63.4
5/7/26 - 0810 70.1 30.9 23 3.4 N | 2 6.4 N | 10 70.5 63.4
5/7/26 - 0800 69.5 30.8 24 2.8 N | 357 4.7 NNE | 16 69.9 63.4
5/7/26 - 0750 69.2 30.8 24 2.9 N | 358 4.5 N | 350 69.5 63.4
5/7/26 - 0740 68.6 30.8 24 3.0 N | 355 4.5 N | 352 69.0 63.4
5/7/26 - 0730 67.7 31.0 25 2.1 N | 0 3.4 N | 354 68.1 63.4
5/7/26 - 0720 67.0 30.8 26 1.9 NNE | 20 2.8 NE | 35 67.3 63.4
5/7/26 - 0710 66.8 30.1 25 2.1 NNW | 348 2.6 N | 349 67.1 63.4
5/7/26 - 0700 66.3 29.6 25 2.4 NNW | 346 3.4 NNW | 348 66.7 63.4
5/7/26 - 0650 65.5 29.6 26 3.3 NNW | 340 4.1 NNW | 331 66.7 63.4
5/7/26 - 0640 65.5 29.5 26 3.3 NW | 315 4.1 NW | 325 66.7 63.4
5/7/26 - 0630 65.7 29.5 26 3.1 NNW | 327 3.7 NNW | 337 66.7 63.4
5/7/26 - 0620 65.4 29.5 26 3.7 NNW | 328 4.8 NNW | 332 66.7 63.4
5/7/26 - 0610 65.1 29.5 26 3.4 NW | 319 4.5 NNW | 327 66.7 63.4
5/7/26 - 0600 65.0 29.5 26 3.2 WNW | 294 4.6 WNW | 291 66.7 63.4
5/7/26 - 0550 65.0 29.5 26 3.3 WNW | 303 4.5 WNW | 299 66.7 63.4
5/7/26 - 0540 65.3 29.7 26 4.2 NW | 320 4.7 NW | 323 66.7 63.4
5/7/26 - 0530 65.0 29.9 27 3.9 NW | 322 4.7 NW | 325 66.7 63.4
5/7/26 - 0520 64.5 29.9 27 3.7 NW | 315 5.1 NW | 311 66.7 63.4
5/7/26 - 0510 64.6 30.0 27 3.8 NW | 320 4.9 NW | 324 66.7 63.4
5/7/26 - 0500 64.2 30.0 27 3.9 NNW | 327 4.7 NW | 318 66.7 63.4
5/7/26 - 0450 63.8 30.1 28 3.2 NNW | 329 3.9 NNW | 330 66.7 63.4
5/7/26 - 0440 64.2 30.1 28 3.3 WNW | 299 4.7 WNW | 295 66.7 63.4
5/7/26 - 0430 64.0 30.2 28 3.8 WNW | 286 4.9 WNW | 294 66.7 63.4
5/7/26 - 0420 63.6 30.1 28 3.7 WNW | 292 5.0 WNW | 293 66.7 63.4
5/7/26 - 0410 64.0 30.0 28 3.4 WNW | 297 5.0 WNW | 292 66.7 63.4
5/7/26 - 0400 65.1 29.9 27 2.9 WNW | 303 5.8 WNW | 287 66.7 63.9
5/7/26 - 0350 65.1 29.8 26 2.9 WNW | 284 6.7 WNW | 284 66.7 63.9
5/7/26 - 0340 64.3 29.7 27 3.8 WNW | 290 5.4 W | 280 66.7 63.9
5/7/26 - 0330 64.8 29.9 27 4.1 W | 277 5.8 W | 276 66.7 63.9
5/7/26 - 0320 65.6 30.2 26 2.4 WNW | 287 3.9 W | 280 66.7 63.9
5/7/26 - 0310 64.9 30.1 27 1.3 NW | 325 2.7 NNW | 346 66.7 63.9
5/7/26 - 0300 64.6 30.3 27 2.0 N | 352 3.6 NW | 322 66.7 63.9
5/7/26 - 0250 65.5 30.4 27 3.5 NW | 326 4.2 NNW | 329 66.7 63.9
5/7/26 - 0240 66.5 30.5 26 3.2 NW | 324 4.8 NNW | 329 66.7 63.9
5/7/26 - 0230 66.5 30.6 26 2.6 NNW | 334 3.4 NW | 323 66.7 63.9
5/7/26 - 0220 65.6 30.6 27 3.3 NW | 318 4.2 NW | 318 66.0 63.9
5/7/26 - 0210 65.3 30.5 27 2.4 WNW | 303 3.8 NW | 314 65.5 63.9
5/7/26 - 0200 64.5 30.6 28 3.6 WNW | 291 5.6 WNW | 285 65.0 63.9
5/7/26 - 0150 64.4 30.6 28 4.9 WNW | 285 6.1 WNW | 286 64.9 63.9
5/7/26 - 0140 64.4 30.5 28 4.6 WNW | 283 5.7 WNW | 287 64.9 64.2
5/7/26 - 0130 64.6 30.5 28 4.6 WNW | 282 5.0 WNW | 284 64.9 64.4
5/7/26 - 0120 64.7 30.5 28 4.6 WNW | 289 5.1 WNW | 292 64.9 64.4
5/7/26 - 0110 64.7 30.8 28 3.3 WNW | 298 4.4 WNW | 295 64.8 64.4
5/7/26 - 0100 64.2 31.2 29 4.5 WNW | 284 5.3 W | 270 69.5 44.1
5/7/26 - 0050 64.4 31.6 29 5.2 W | 273 6.5 W | 274 69.5 44.1
5/7/26 - 0040 64.3 32.3 30 4.1 WNW | 282 5.2 W | 266 69.5 44.1
5/7/26 - 0030 64.2 32.9 31 4.2 WNW | 292 5.6 WNW | 283 69.5 44.1
5/7/26 - 0020 63.9 33.7 32 2.7 NW | 309 4.0 WNW | 295 69.5 44.1
5/7/26 - 0010 64.1 34.2 33 2.9 WNW | 301 3.8 WNW | 289 69.5 44.1
5/7/26 - 0000 64.4 34.5 33 3.5 NNW | 327 4.3 NW | 326 69.5 44.1
5/6/26 - 2350 64.4 34.6 33 3.8 NW | 322 4.7 NW | 316 69.5 44.1
5/6/26 - 2340 64.5 35.0 33 3.5 NW | 316 4.1 NW | 321 69.5 44.1
5/6/26 - 2330 64.4 36.4 35 3.8 NW | 325 4.8 NW | 326 69.5 44.1
5/6/26 - 2320 63.8 37.2 37 5.1 NW | 323 6.3 NW | 315 69.5 44.1
5/6/26 - 2310 62.4 38.4 41 4.2 NNW | 348 5.0 N | 6 69.5 44.1
5/6/26 - 2300 61.9 38.4 42 5.0 N | 359 5.5 N | 1 69.5 44.1
5/6/26 - 2250 61.8 38.5 42 5.2 N | 355 5.8 N | 354 69.5 44.1
5/6/26 - 2240 61.4 38.7 43 5.1 N | 6 5.8 N | 8 69.5 44.1
5/6/26 - 2230 61.2 38.7 43 5.3 N | 4 6.2 N | 0 69.5 44.1
5/6/26 - 2220 60.9 38.9 44 6.1 N | 7 6.7 N | 11 69.5 44.1
5/6/26 - 2210 60.5 39.0 45 6.3 N | 1 6.9 N | 353 69.5 44.1
5/6/26 - 2200 61.3 38.9 43 5.2 NNW | 340 6.6 N | 5 69.5 44.1
5/6/26 - 2150 62.1 39.1 43 3.9 NNW | 333 4.7 NNW | 334 69.5 44.1
5/6/26 - 2140 62.4 39.2 42 2.9 N | 5 3.2 NNE | 16 69.5 44.1
5/6/26 - 2130 62.5 39.3 42 1.9 N | 1 2.9 N | 1 69.5 44.1
5/6/26 - 2120 62.2 39.4 43 1.3 N | 10 2.5 N | 9 69.5 44.1
5/6/26 - 2110 62.4 39.5 43 2.2 N | 357 3.1 N | 353 69.5 44.1
5/6/26 - 2100 62.8 39.7 43 2.2 N | 357 3.5 NNW | 331 69.5 44.1
5/6/26 - 2050 63.1 39.8 42 2.0 N | 2 2.8 N | 4 69.5 44.1
5/6/26 - 2040 63.2 39.9 42 1.8 N | 5 2.3 N | 11 69.5 44.1
5/6/26 - 2030 63.0 40.0 43 2.6 N | 4 3.2 N | 6 69.5 44.1
5/6/26 - 2020 63.0 40.1 43 3.6 N | 7 4.5 N | 0 69.5 44.1
5/6/26 - 2010 63.1 40.4 43 3.9 N | 7 4.6 NNE | 15 69.5 44.1
5/6/26 - 2000 63.4 40.1 42 4.2 NNE | 20 5.0 NE | 35 69.5 44.1
5/6/26 - 1950 63.6 39.8 42 4.6 NE | 38 6.1 NNE | 25 69.5 44.1
5/6/26 - 1940 64.0 39.9 41 4.4 NNE | 25 5.9 NNE | 30 69.5 44.1
5/6/26 - 1930 64.7 39.8 40 3.9 NNE | 28 6.9 NNE | 27 69.5 44.1
Max 79.9 43.8 45 15.5 - 24.3 - 80.6 64.4
Avg 69.8 32.4 27 5.5 - 9.4 - - -
Min 60.5 23.4 14 1.3 - 2.3 - 64.8 44.1